createdAt,value
2018-03-18T00:00:02.000Z,25.1
2018-03-18T00:01:02.000Z,25.1
2018-03-18T00:03:02.000Z,25.1
2018-03-18T00:05:02.000Z,25
2018-03-18T00:06:02.000Z,24.9
2018-03-18T00:08:02.000Z,25
2018-03-18T00:10:02.000Z,25
2018-03-18T00:12:02.000Z,24.9
2018-03-18T00:13:02.000Z,25
2018-03-18T00:15:02.000Z,25
2018-03-18T00:16:02.000Z,25
2018-03-18T00:17:46.000Z,25.1
2018-03-18T00:19:02.000Z,25
2018-03-18T00:21:02.000Z,25
2018-03-18T00:22:02.000Z,25
2018-03-18T00:24:02.000Z,25
2018-03-18T00:26:02.000Z,25
2018-03-18T00:28:02.000Z,25
2018-03-18T00:30:02.000Z,24.9
2018-03-18T00:31:02.000Z,24.9
2018-03-18T00:33:02.000Z,24.9
2018-03-18T00:35:02.000Z,24.8
2018-03-18T00:37:02.000Z,24.8
2018-03-18T00:39:02.000Z,24.8
2018-03-18T00:40:02.000Z,24.8
2018-03-18T00:42:02.000Z,24.9
2018-03-18T00:43:02.000Z,24.9
2018-03-18T00:45:02.000Z,25
2018-03-18T00:47:02.000Z,25
2018-03-18T00:49:02.000Z,24.9
2018-03-18T00:50:02.000Z,24.9
2018-03-18T00:51:02.000Z,25
2018-03-18T00:52:02.000Z,25
2018-03-18T00:53:02.000Z,25
2018-03-18T00:55:02.000Z,25
2018-03-18T00:57:01.000Z,25
2018-03-18T00:59:01.000Z,24.9
2018-03-18T01:00:01.000Z,24.9
2018-03-18T01:02:01.000Z,25
2018-03-18T01:03:01.000Z,25
2018-03-18T01:05:01.000Z,25
2018-03-18T01:06:01.000Z,25
2018-03-18T01:08:01.000Z,25
2018-03-18T01:09:01.000Z,25
2018-03-18T01:11:01.000Z,24.9
2018-03-18T01:12:01.000Z,24.9
2018-03-18T01:13:01.000Z,24.9
2018-03-18T01:15:01.000Z,25
2018-03-18T01:17:01.000Z,24.9
2018-03-18T01:18:01.000Z,24.9
2018-03-18T01:20:01.000Z,24.9
2018-03-18T01:21:01.000Z,24.9
2018-03-18T01:23:01.000Z,25
2018-03-18T01:24:01.000Z,25
2018-03-18T01:25:01.000Z,25
2018-03-18T01:26:01.000Z,25
2018-03-18T01:28:01.000Z,25
2018-03-18T01:30:01.000Z,25
2018-03-18T01:31:01.000Z,25
2018-03-18T01:33:01.000Z,25
2018-03-18T01:35:01.000Z,25
2018-03-18T01:37:01.000Z,24.9
2018-03-18T01:39:01.000Z,24.9
2018-03-18T01:41:01.000Z,24.9
2018-03-18T01:42:01.000Z,24.9
2018-03-18T01:44:01.000Z,24.9
2018-03-18T01:46:01.000Z,24.9
2018-03-18T01:48:01.000Z,24.9
2018-03-18T01:49:01.000Z,24.9
2018-03-18T01:51:01.000Z,24.9
2018-03-18T01:52:01.000Z,24.9
2018-03-18T01:54:01.000Z,24.9
2018-03-18T01:56:01.000Z,24.9
2018-03-18T01:57:01.000Z,24.9
2018-03-18T01:58:01.000Z,24.9
2018-03-18T01:59:01.000Z,25
2018-03-18T02:00:46.000Z,25.1
2018-03-18T02:02:01.000Z,25
2018-03-18T02:04:01.000Z,24.9
2018-03-18T02:05:01.000Z,24.9
2018-03-18T02:07:01.000Z,24.9
2018-03-18T02:08:01.000Z,24.8
2018-03-18T02:10:01.000Z,24.9
2018-03-18T02:12:01.000Z,24.8
2018-03-18T02:14:01.000Z,24.7
2018-03-18T02:15:46.000Z,24.7
2018-03-18T02:17:01.000Z,24.7
2018-03-18T02:18:01.000Z,24.7
2018-03-18T02:19:01.000Z,24.7
2018-03-18T02:20:01.000Z,24.8
2018-03-18T02:22:01.000Z,24.9
2018-03-18T02:24:01.000Z,24.8
2018-03-18T02:26:01.000Z,24.8
2018-03-18T02:27:01.000Z,24.8
2018-03-18T02:29:01.000Z,24.8
2018-03-18T02:31:01.000Z,24.8
2018-03-18T02:32:01.000Z,24.8
2018-03-18T02:34:01.000Z,24.9
2018-03-18T02:35:01.000Z,24.9
2018-03-18T02:37:01.000Z,24.9
2018-03-18T02:39:01.000Z,24.9
2018-03-18T02:40:01.000Z,24.9
2018-03-18T02:42:01.000Z,24.8
2018-03-18T02:44:01.000Z,24.8
2018-03-18T02:45:01.000Z,24.8
2018-03-18T02:47:01.000Z,24.8
2018-03-18T02:49:01.000Z,24.8
2018-03-18T02:50:01.000Z,24.8
2018-03-18T02:51:01.000Z,24.8
2018-03-18T02:53:01.000Z,24.9
2018-03-18T02:55:01.000Z,24.8
2018-03-18T02:57:01.000Z,24.7
2018-03-18T02:58:01.000Z,24.8
2018-03-18T02:59:01.000Z,24.8
2018-03-18T03:00:01.000Z,24.9
2018-03-18T03:01:01.000Z,25
2018-03-18T03:03:01.000Z,25
2018-03-18T03:04:47.000Z,25
2018-03-18T03:06:02.000Z,24.9
2018-03-18T03:08:02.000Z,24.9
2018-03-18T03:10:02.000Z,24.8
2018-03-18T03:12:02.000Z,24.7
2018-03-18T03:14:02.000Z,24.6
2018-03-18T03:15:02.000Z,24.6
2018-03-18T03:16:02.000Z,24.7
2018-03-18T03:18:02.000Z,24.7
2018-03-18T03:19:02.000Z,24.7
2018-03-18T03:20:02.000Z,24.7
2018-03-18T03:22:02.000Z,24.8
2018-03-18T03:23:02.000Z,24.8
2018-03-18T03:24:02.000Z,24.8
2018-03-18T03:25:02.000Z,24.8
2018-03-18T03:27:02.000Z,24.9
2018-03-18T03:28:02.000Z,24.9
2018-03-18T03:30:02.000Z,24.9
2018-03-18T03:31:02.000Z,24.9
2018-03-18T03:33:02.000Z,24.9
2018-03-18T03:35:02.000Z,24.9
2018-03-18T03:36:02.000Z,24.9
2018-03-18T03:37:02.000Z,24.9
2018-03-18T03:38:02.000Z,25
2018-03-18T03:40:02.000Z,25
2018-03-18T03:41:47.000Z,25
2018-03-18T03:43:02.000Z,24.9
2018-03-18T03:45:02.000Z,24.8
2018-03-18T03:46:02.000Z,24.8
2018-03-18T03:48:02.000Z,24.8
2018-03-18T03:50:02.000Z,24.8
2018-03-18T03:51:02.000Z,24.8
2018-03-18T03:52:02.000Z,24.8
2018-03-18T03:53:02.000Z,24.8
2018-03-18T03:55:02.000Z,24.9
2018-03-18T03:57:02.000Z,24.8
2018-03-18T03:58:02.000Z,24.8
2018-03-18T03:59:02.000Z,24.8
2018-03-18T04:01:02.000Z,24.8
2018-03-18T04:02:02.000Z,24.8
2018-03-18T04:04:02.000Z,24.8
2018-03-18T04:05:02.000Z,24.8
2018-03-18T04:07:02.000Z,24.8
2018-03-18T04:08:02.000Z,24.8
2018-03-18T04:10:02.000Z,24.8
2018-03-18T04:11:02.000Z,24.8
2018-03-18T04:12:02.000Z,24.9
2018-03-18T04:14:02.000Z,24.9
2018-03-18T04:15:02.000Z,24.9
2018-03-18T04:16:02.000Z,25
2018-03-18T04:17:02.000Z,25
2018-03-18T04:18:02.000Z,25
2018-03-18T04:20:02.000Z,25
2018-03-18T04:21:02.000Z,25
2018-03-18T04:22:02.000Z,25
2018-03-18T04:23:02.000Z,25
2018-03-18T04:25:02.000Z,25
2018-03-18T04:26:02.000Z,25
2018-03-18T04:28:02.000Z,25
2018-03-18T04:30:02.000Z,24.9
2018-03-18T04:31:02.000Z,24.9
2018-03-18T04:33:02.000Z,24.9
2018-03-18T04:34:02.000Z,24.9
2018-03-18T04:35:02.000Z,24.9
2018-03-18T04:37:02.000Z,25
2018-03-18T04:38:02.000Z,25
2018-03-18T04:39:02.000Z,25
2018-03-18T04:40:02.000Z,25
2018-03-18T04:41:02.000Z,25
2018-03-18T04:43:02.000Z,24.9
2018-03-18T04:44:02.000Z,24.9
2018-03-18T04:45:02.000Z,25
2018-03-18T04:47:02.000Z,25
2018-03-18T04:48:02.000Z,25
2018-03-18T04:50:02.000Z,25
2018-03-18T04:51:02.000Z,25
2018-03-18T04:53:02.000Z,25
2018-03-18T04:54:02.000Z,25
2018-03-18T04:55:02.000Z,25
2018-03-18T04:57:02.000Z,25
2018-03-18T04:58:46.000Z,25
2018-03-18T05:00:02.000Z,24.9
2018-03-18T05:01:02.000Z,24.9
2018-03-18T05:02:02.000Z,24.9
2018-03-18T05:03:02.000Z,25
2018-03-18T05:04:02.000Z,25
2018-03-18T05:05:46.000Z,25
2018-03-18T05:07:02.000Z,24.9
2018-03-18T05:08:02.000Z,24.9
2018-03-18T05:10:02.000Z,24.9
2018-03-18T05:11:01.000Z,24.9
2018-03-18T05:12:46.000Z,24.9
2018-03-18T05:14:01.000Z,24.9
2018-03-18T05:15:46.000Z,24.9
2018-03-18T05:17:01.000Z,24.8
2018-03-18T05:19:01.000Z,24.7
2018-03-18T05:21:01.000Z,24.7
2018-03-18T05:23:01.000Z,24.7
2018-03-18T05:24:01.000Z,24.6
2018-03-18T05:25:01.000Z,24.7
2018-03-18T05:26:01.000Z,24.7
2018-03-18T05:28:01.000Z,24.7
2018-03-18T05:29:01.000Z,24.8
2018-03-18T05:30:01.000Z,24.8
2018-03-18T05:32:01.000Z,24.8
2018-03-18T05:33:01.000Z,24.8
2018-03-18T05:34:01.000Z,24.8
2018-03-18T05:36:01.000Z,24.8
2018-03-18T05:37:01.000Z,24.8
2018-03-18T05:39:01.000Z,24.8
2018-03-18T05:41:01.000Z,24.7
2018-03-18T05:42:01.000Z,24.7
2018-03-18T05:43:01.000Z,24.8
2018-03-18T05:45:01.000Z,24.8
2018-03-18T05:46:01.000Z,24.8
2018-03-18T05:48:01.000Z,24.8
2018-03-18T05:49:01.000Z,24.8
2018-03-18T05:51:01.000Z,24.8
2018-03-18T05:52:01.000Z,24.8
2018-03-18T05:53:01.000Z,24.8
2018-03-18T05:55:01.000Z,24.8
2018-03-18T05:56:01.000Z,24.8
2018-03-18T05:58:01.000Z,24.8
2018-03-18T05:59:01.000Z,24.8
2018-03-18T06:00:01.000Z,24.9
2018-03-18T06:02:01.000Z,24.9
2018-03-18T06:03:01.000Z,24.9
2018-03-18T06:04:01.000Z,24.9
2018-03-18T06:05:01.000Z,25
2018-03-18T06:06:01.000Z,25
2018-03-18T06:08:01.000Z,25
2018-03-18T06:09:01.000Z,25
2018-03-18T06:10:01.000Z,25
2018-03-18T06:11:01.000Z,25
2018-03-18T06:13:01.000Z,25.1
2018-03-18T06:14:02.000Z,25.1
2018-03-18T06:16:02.000Z,25
2018-03-18T06:18:02.000Z,24.8
2018-03-18T06:19:47.000Z,24.7
2018-03-18T06:21:02.000Z,24.7
2018-03-18T06:23:02.000Z,24.6
2018-03-18T06:24:02.000Z,24.6
2018-03-18T06:25:02.000Z,24.6
2018-03-18T06:27:02.000Z,24.7
2018-03-18T06:29:02.000Z,24.7
2018-03-18T06:30:02.000Z,24.7
2018-03-18T06:32:02.000Z,24.7
2018-03-18T06:33:02.000Z,24.8
2018-03-18T06:35:02.000Z,24.8
2018-03-18T06:37:02.000Z,24.7
2018-03-18T06:38:02.000Z,24.7
2018-03-18T06:39:02.000Z,24.7
2018-03-18T06:40:02.000Z,24.7
2018-03-18T06:41:02.000Z,24.8
2018-03-18T06:42:02.000Z,24.8
2018-03-18T06:44:02.000Z,24.9
2018-03-18T06:45:02.000Z,24.9
2018-03-18T06:47:02.000Z,24.9
2018-03-18T06:49:02.000Z,24.9
2018-03-18T06:50:02.000Z,24.9
2018-03-18T06:52:02.000Z,24.8
2018-03-18T06:53:02.000Z,24.8
2018-03-18T06:54:02.000Z,24.9
2018-03-18T06:56:02.000Z,24.9
2018-03-18T06:57:02.000Z,24.9
2018-03-18T06:59:02.000Z,24.9
2018-03-18T07:01:02.000Z,24.8
2018-03-18T07:02:02.000Z,24.8
2018-03-18T07:04:02.000Z,24.8
2018-03-18T07:06:02.000Z,24.8
2018-03-18T07:07:02.000Z,24.8
2018-03-18T07:09:02.000Z,24.9
2018-03-18T07:11:02.000Z,24.9
2018-03-18T07:13:02.000Z,24.9
2018-03-18T07:14:02.000Z,24.9
2018-03-18T07:15:47.000Z,25
2018-03-18T07:17:01.000Z,25
2018-03-18T07:18:01.000Z,25
2018-03-18T07:20:01.000Z,25
2018-03-18T07:22:01.000Z,24.9
2018-03-18T07:24:01.000Z,24.9
2018-03-18T07:25:01.000Z,24.9
2018-03-18T07:27:01.000Z,25
2018-03-18T07:28:01.000Z,25
2018-03-18T07:30:01.000Z,25.1
2018-03-18T07:31:01.000Z,25.1
2018-03-18T07:33:01.000Z,25.2
2018-03-18T07:34:01.000Z,25.2
2018-03-18T07:36:01.000Z,25.3
2018-03-18T07:38:01.000Z,25.3
2018-03-18T07:39:01.000Z,25.3
2018-03-18T07:41:01.000Z,25.3
2018-03-18T07:43:01.000Z,25.2
2018-03-18T07:44:01.000Z,25.3
2018-03-18T07:46:01.000Z,25.3
2018-03-18T07:48:01.000Z,25.3
2018-03-18T07:49:01.000Z,25.3
2018-03-18T07:50:01.000Z,25.3
2018-03-18T07:51:01.000Z,25.4
2018-03-18T07:53:01.000Z,25.4
2018-03-18T07:54:01.000Z,25.4
2018-03-18T07:56:01.000Z,25.4
2018-03-18T07:57:01.000Z,25.4
2018-03-18T07:59:01.000Z,25.3
2018-03-18T08:00:01.000Z,25.3
2018-03-18T08:01:01.000Z,25.4
2018-03-18T08:03:01.000Z,25.4
2018-03-18T08:04:01.000Z,25.4
2018-03-18T08:05:01.000Z,25.4
2018-03-18T08:07:01.000Z,25.5
2018-03-18T08:08:01.000Z,25.5
2018-03-18T08:10:01.000Z,25.5
2018-03-18T08:12:01.000Z,25.5
2018-03-18T08:13:01.000Z,25.5
2018-03-18T08:14:01.000Z,25.5
2018-03-18T08:15:01.000Z,25.5
2018-03-18T08:16:01.000Z,25.6
2018-03-18T08:17:01.000Z,25.7
2018-03-18T08:19:01.000Z,25.7
2018-03-18T08:20:01.000Z,25.7
2018-03-18T08:21:01.000Z,25.8
2018-03-18T08:23:01.000Z,25.8
2018-03-18T08:24:01.000Z,25.8
2018-03-18T08:25:01.000Z,25.9
2018-03-18T08:27:01.000Z,26
2018-03-18T08:29:01.000Z,26
2018-03-18T08:30:01.000Z,26
2018-03-18T08:32:01.000Z,26
2018-03-18T08:34:01.000Z,26
2018-03-18T08:36:01.000Z,26.1
2018-03-18T08:38:01.000Z,26.2
2018-03-18T08:40:01.000Z,26.5
2018-03-18T08:42:01.000Z,26.7
2018-03-18T08:44:01.000Z,27.2
2018-03-18T08:45:01.000Z,27.3
2018-03-18T08:47:01.000Z,27.5
2018-03-18T08:48:01.000Z,27.6
2018-03-18T08:50:01.000Z,27.9
2018-03-18T08:51:01.000Z,28
2018-03-18T08:52:01.000Z,28
2018-03-18T08:53:01.000Z,28.1
2018-03-18T08:55:01.000Z,28.2
2018-03-18T08:56:01.000Z,28.3
2018-03-18T08:57:01.000Z,28.3
2018-03-18T08:58:01.000Z,28.3
2018-03-18T09:00:01.000Z,28.4
2018-03-18T09:02:01.000Z,28.3
2018-03-18T09:03:01.000Z,28.3
2018-03-18T09:05:01.000Z,28.2
2018-03-18T09:06:01.000Z,28.2
2018-03-18T09:08:01.000Z,28.2
2018-03-18T09:09:01.000Z,28.2
2018-03-18T09:10:01.000Z,28.1
2018-03-18T09:12:01.000Z,28
2018-03-18T09:13:01.000Z,28
2018-03-18T09:15:01.000Z,28
2018-03-18T09:16:01.000Z,27.9
2018-03-18T09:17:01.000Z,28
2018-03-18T09:18:46.000Z,28
2018-03-18T09:20:01.000Z,27.9
2018-03-18T09:22:01.000Z,27.8
2018-03-18T09:23:01.000Z,27.8
2018-03-18T09:24:02.000Z,27.7
2018-03-18T09:26:02.000Z,27.5
2018-03-18T09:28:02.000Z,27.2
2018-03-18T09:29:02.000Z,27.1
2018-03-18T09:30:02.000Z,27.1
2018-03-18T09:31:02.000Z,27
2018-03-18T09:33:02.000Z,26.9
2018-03-18T09:34:02.000Z,26.9
2018-03-18T09:35:02.000Z,26.8
2018-03-18T09:37:02.000Z,26.7
2018-03-18T09:38:02.000Z,26.7
2018-03-18T09:39:02.000Z,26.7
2018-03-18T09:41:02.000Z,26.6
2018-03-18T09:43:02.000Z,26.5
2018-03-18T09:44:47.000Z,26.5
2018-03-18T09:46:02.000Z,26.4
2018-03-18T09:48:02.000Z,26.4
2018-03-18T09:50:02.000Z,26.4
2018-03-18T09:51:02.000Z,26.3
2018-03-18T09:53:02.000Z,26.3
2018-03-18T09:55:02.000Z,26.3
2018-03-18T09:56:47.000Z,26.3
2018-03-18T09:58:02.000Z,26.3
2018-03-18T09:59:02.000Z,26.3
2018-03-18T10:01:02.000Z,26.2
2018-03-18T10:03:02.000Z,26.1
2018-03-18T10:05:02.000Z,26.1
2018-03-18T10:07:02.000Z,26
2018-03-18T10:08:02.000Z,26
2018-03-18T10:10:02.000Z,26.1
2018-03-18T10:12:02.000Z,26.1
2018-03-18T10:13:02.000Z,26.1
2018-03-18T10:15:02.000Z,26.1
2018-03-18T10:16:02.000Z,26.1
2018-03-18T10:18:02.000Z,26.1
2018-03-18T10:19:47.000Z,26.1
2018-03-18T10:21:02.000Z,26.1
2018-03-18T10:22:02.000Z,26.1
2018-03-18T10:24:02.000Z,26.1
2018-03-18T10:25:02.000Z,26.1
2018-03-18T10:27:02.000Z,26.2
2018-03-18T10:29:02.000Z,26.2
2018-03-18T10:30:02.000Z,26.2
2018-03-18T10:32:02.000Z,26.4
2018-03-18T10:34:02.000Z,26.5
2018-03-18T10:36:02.000Z,26.6
2018-03-18T10:38:02.000Z,26.7
2018-03-18T10:40:02.000Z,26.8
2018-03-18T10:41:02.000Z,26.9
2018-03-18T10:42:02.000Z,27
2018-03-18T10:44:02.000Z,27.1
2018-03-18T10:46:02.000Z,27
2018-03-18T10:47:46.000Z,27
2018-03-18T10:49:02.000Z,27
2018-03-18T10:50:02.000Z,27
2018-03-18T10:52:02.000Z,27
2018-03-18T10:53:02.000Z,27
2018-03-18T10:54:46.000Z,27.2
2018-03-18T10:56:02.000Z,27.2
2018-03-18T10:57:02.000Z,27.3
2018-03-18T10:59:02.000Z,27.5
2018-03-18T11:01:02.000Z,27.6
2018-03-18T11:02:02.000Z,27.7
2018-03-18T11:03:02.000Z,27.9
2018-03-18T11:05:02.000Z,28.1
2018-03-18T11:07:02.000Z,28.3
2018-03-18T11:08:02.000Z,28.5
2018-03-18T11:10:02.000Z,28.9
2018-03-18T11:11:02.000Z,29.3
2018-03-18T11:12:46.000Z,29.6
2018-03-18T11:13:47.000Z,29.5
2018-03-18T11:15:02.000Z,29.4
2018-03-18T11:17:02.000Z,29.2
2018-03-18T11:19:02.000Z,29.2
2018-03-18T11:21:02.000Z,29.2
2018-03-18T11:22:02.000Z,29.3
2018-03-18T11:24:02.000Z,30.4
2018-03-18T11:26:02.000Z,32.1
2018-03-18T11:27:02.000Z,32.8
2018-03-18T11:29:02.000Z,33.5
2018-03-18T11:31:02.000Z,33.6
2018-03-18T11:32:02.000Z,33.7
2018-03-18T11:34:02.000Z,33.9
2018-03-18T11:35:02.000Z,34
2018-03-18T11:36:02.000Z,34.3
2018-03-18T11:38:02.000Z,33.6
2018-03-18T11:40:02.000Z,32.2
2018-03-18T11:42:02.000Z,31
2018-03-18T11:43:02.000Z,30.5
2018-03-18T11:45:02.000Z,29.8
2018-03-18T11:47:02.000Z,29.2
2018-03-18T11:49:02.000Z,28.7
2018-03-18T11:51:02.000Z,28.3
2018-03-18T11:53:02.000Z,28
2018-03-18T11:55:02.000Z,27.7
2018-03-18T11:56:02.000Z,27.6
2018-03-18T11:57:02.000Z,27.6
2018-03-18T11:59:02.000Z,27.5
2018-03-18T12:00:02.000Z,27.5
2018-03-18T12:02:02.000Z,27.4
2018-03-18T12:03:02.000Z,27.3
2018-03-18T12:04:02.000Z,27.3
2018-03-18T12:06:02.000Z,27.2
2018-03-18T12:07:47.000Z,27.1
2018-03-18T12:09:02.000Z,27
2018-03-18T12:10:02.000Z,27
2018-03-18T12:11:02.000Z,27
2018-03-18T12:13:02.000Z,26.9
2018-03-18T12:14:02.000Z,26.9
2018-03-18T12:15:02.000Z,26.9
2018-03-18T12:16:02.000Z,27
2018-03-18T12:18:02.000Z,26.9
2018-03-18T12:20:02.000Z,26.7
2018-03-18T12:22:02.000Z,26.6
2018-03-18T12:24:02.000Z,26.5
2018-03-18T12:25:02.000Z,26.5
2018-03-18T12:27:02.000Z,26.6
2018-03-18T12:28:02.000Z,26.6
2018-03-18T12:30:02.000Z,26.6
2018-03-18T12:31:02.000Z,26.6
2018-03-18T12:32:02.000Z,26.7
2018-03-18T12:34:02.000Z,26.7
2018-03-18T12:35:01.000Z,26.6
2018-03-18T12:37:01.000Z,26.6
2018-03-18T12:38:46.000Z,26.5
2018-03-18T12:40:01.000Z,26.4
2018-03-18T12:42:01.000Z,26.5
2018-03-18T12:44:01.000Z,28.8
2018-03-18T12:46:01.000Z,30.8
2018-03-18T12:47:01.000Z,31.6
2018-03-18T12:49:01.000Z,32.9
2018-03-18T12:50:01.000Z,33.3
2018-03-18T12:52:01.000Z,33.9
2018-03-18T12:54:01.000Z,34.1
2018-03-18T12:55:01.000Z,34.1
2018-03-18T12:57:01.000Z,33.8
2018-03-18T12:58:46.000Z,33.7
2018-03-18T13:00:01.000Z,33.3
2018-03-18T13:01:01.000Z,32.6
2018-03-18T13:03:01.000Z,31.4
2018-03-18T13:05:01.000Z,30.4
2018-03-18T13:06:01.000Z,30
2018-03-18T13:07:01.000Z,29.6
2018-03-18T13:09:01.000Z,29.1
2018-03-18T13:10:01.000Z,28.9
2018-03-18T13:12:01.000Z,28.5
2018-03-18T13:14:01.000Z,28.2
2018-03-18T13:16:01.000Z,28
2018-03-18T13:17:01.000Z,27.9
2018-03-18T13:19:01.000Z,27.8
2018-03-18T13:21:01.000Z,27.6
2018-03-18T13:22:01.000Z,27.6
2018-03-18T13:24:01.000Z,27.5
2018-03-18T13:25:01.000Z,27.5
2018-03-18T13:27:01.000Z,27.5
2018-03-18T13:28:01.000Z,27.5
2018-03-18T13:30:01.000Z,27.4
2018-03-18T13:31:01.000Z,27.4
2018-03-18T13:32:46.000Z,27.3
2018-03-18T13:34:01.000Z,27.2
2018-03-18T13:36:01.000Z,27
2018-03-18T13:38:01.000Z,26.9
2018-03-18T13:39:47.000Z,26.9
2018-03-18T13:41:02.000Z,26.8
2018-03-18T13:42:02.000Z,26.8
2018-03-18T13:44:02.000Z,26.8
2018-03-18T13:45:02.000Z,26.8
2018-03-18T13:46:47.000Z,27.7
2018-03-18T13:48:02.000Z,29
2018-03-18T13:50:02.000Z,30.8
2018-03-18T13:51:02.000Z,31.4
2018-03-18T13:53:02.000Z,32.1
2018-03-18T13:54:02.000Z,32.2
2018-03-18T13:55:02.000Z,32.2
2018-03-18T13:57:02.000Z,31.9
2018-03-18T13:59:02.000Z,31.3
2018-03-18T14:01:02.000Z,30.9
2018-03-18T14:03:02.000Z,30.6
2018-03-18T14:05:02.000Z,30.5
2018-03-18T14:07:02.000Z,30.5
2018-03-18T14:08:02.000Z,30.5
2018-03-18T14:10:02.000Z,30.5
2018-03-18T14:11:47.000Z,30.3
2018-03-18T14:13:02.000Z,30
2018-03-18T14:14:02.000Z,29.8
2018-03-18T14:16:02.000Z,29.6
2018-03-18T14:17:02.000Z,29.5
2018-03-18T14:19:02.000Z,29.3
2018-03-18T14:20:02.000Z,29.2
2018-03-18T14:22:02.000Z,29
2018-03-18T14:24:02.000Z,28.9
2018-03-18T14:25:47.000Z,28.7
2018-03-18T14:27:02.000Z,28.5
2018-03-18T14:28:02.000Z,28.3
2018-03-18T14:30:02.000Z,28.1
2018-03-18T14:32:02.000Z,27.9
2018-03-18T14:34:02.000Z,27.7
2018-03-18T14:36:02.000Z,27.4
2018-03-18T14:37:02.000Z,27.4
2018-03-18T14:38:02.000Z,27.3
2018-03-18T14:39:02.000Z,27.4
2018-03-18T14:41:02.000Z,27.3
2018-03-18T14:43:01.000Z,27.2
2018-03-18T14:44:01.000Z,27.2
2018-03-18T14:46:01.000Z,27.1
2018-03-18T14:48:01.000Z,26.9
2018-03-18T14:50:01.000Z,26.7
2018-03-18T14:51:01.000Z,26.8
2018-03-18T14:52:01.000Z,26.9
2018-03-18T14:53:01.000Z,27
2018-03-18T14:55:01.000Z,27.2
2018-03-18T14:56:46.000Z,27.3
2018-03-18T14:58:01.000Z,27.3
2018-03-18T15:00:01.000Z,27.3
2018-03-18T15:02:01.000Z,27.2
2018-03-18T15:04:01.000Z,27
2018-03-18T15:05:46.000Z,26.9
2018-03-18T15:07:01.000Z,26.8
2018-03-18T15:08:01.000Z,26.8
2018-03-18T15:09:01.000Z,26.8
2018-03-18T15:10:01.000Z,26.8
2018-03-18T15:12:01.000Z,26.8
2018-03-18T15:13:01.000Z,26.8
2018-03-18T15:14:01.000Z,26.8
2018-03-18T15:15:01.000Z,26.8
2018-03-18T15:17:01.000Z,26.8
2018-03-18T15:18:01.000Z,26.7
2018-03-18T15:20:01.000Z,26.8
2018-03-18T15:22:01.000Z,26.7
2018-03-18T15:24:01.000Z,26.7
2018-03-18T15:26:01.000Z,26.7
2018-03-18T15:27:01.000Z,26.7
2018-03-18T15:29:01.000Z,26.7
2018-03-18T15:31:01.000Z,26.6
2018-03-18T15:33:01.000Z,26.6
2018-03-18T15:35:01.000Z,26.6
2018-03-18T15:37:01.000Z,26.6
2018-03-18T15:39:01.000Z,26.5
2018-03-18T15:40:01.000Z,26.5
2018-03-18T15:41:01.000Z,26.6
2018-03-18T15:43:01.000Z,26.6
2018-03-18T15:45:01.000Z,26.6
2018-03-18T15:46:01.000Z,26.6
2018-03-18T15:48:01.000Z,26.6
2018-03-18T15:49:01.000Z,26.6
2018-03-18T15:51:01.000Z,26.6
2018-03-18T15:53:01.000Z,26.6
2018-03-18T15:54:01.000Z,26.6
2018-03-18T15:55:46.000Z,26.6
2018-03-18T15:57:01.000Z,26.6
2018-03-18T15:59:01.000Z,26.6
2018-03-18T16:01:01.000Z,26.5
2018-03-18T16:02:01.000Z,26.5
2018-03-18T16:04:01.000Z,26.5
2018-03-18T16:05:01.000Z,26.5
2018-03-18T16:07:01.000Z,26.4
2018-03-18T16:08:01.000Z,26.4
2018-03-18T16:09:01.000Z,26.4
2018-03-18T16:11:01.000Z,26.4
2018-03-18T16:13:01.000Z,26.4
2018-03-18T16:14:01.000Z,26.4
2018-03-18T16:15:01.000Z,26.4
2018-03-18T16:16:01.000Z,26.5
2018-03-18T16:17:01.000Z,26.5
2018-03-18T16:19:01.000Z,26.6
2018-03-18T16:21:01.000Z,26.5
2018-03-18T16:22:01.000Z,26.5
2018-03-18T16:24:01.000Z,26.5
2018-03-18T16:25:01.000Z,26.5
2018-03-18T16:27:01.000Z,26.5
2018-03-18T16:29:01.000Z,26.4
2018-03-18T16:30:01.000Z,26.4
2018-03-18T16:32:01.000Z,26.4
2018-03-18T16:33:01.000Z,26.4
2018-03-18T16:35:01.000Z,26.4
2018-03-18T16:36:01.000Z,26.4
2018-03-18T16:37:01.000Z,26.4
2018-03-18T16:38:01.000Z,26.4
2018-03-18T16:40:01.000Z,26.5
2018-03-18T16:41:01.000Z,26.4
2018-03-18T16:43:01.000Z,26.3
2018-03-18T16:44:01.000Z,26.3
2018-03-18T16:45:01.000Z,26.3
2018-03-18T16:47:01.000Z,26.2
2018-03-18T16:48:01.000Z,26.2
2018-03-18T16:50:01.000Z,26.2
2018-03-18T16:51:01.000Z,26.2
2018-03-18T16:52:01.000Z,26.2
2018-03-18T16:53:01.000Z,26.3
2018-03-18T16:55:01.000Z,26.2
2018-03-18T16:56:01.000Z,26.2
2018-03-18T16:58:01.000Z,26.1
2018-03-18T17:00:01.000Z,26
2018-03-18T17:02:01.000Z,25.9
2018-03-18T17:03:01.000Z,25.9
2018-03-18T17:05:01.000Z,25.8
2018-03-18T17:06:01.000Z,25.8
2018-03-18T17:07:46.000Z,25.8
2018-03-18T17:09:01.000Z,25.8
2018-03-18T17:11:01.000Z,25.7
2018-03-18T17:13:01.000Z,25.6
2018-03-18T17:15:01.000Z,25.6
2018-03-18T17:17:01.000Z,25.5
2018-03-18T17:19:01.000Z,25.5
2018-03-18T17:20:01.000Z,25.5
2018-03-18T17:21:01.000Z,25.5
2018-03-18T17:22:01.000Z,25.6
2018-03-18T17:23:01.000Z,25.6
2018-03-18T17:25:01.000Z,25.7
2018-03-18T17:26:46.000Z,25.7
2018-03-18T17:28:01.000Z,25.6
2018-03-18T17:30:01.000Z,25.6
2018-03-18T17:31:01.000Z,25.6
2018-03-18T17:33:01.000Z,25.6
2018-03-18T17:35:01.000Z,25.6
2018-03-18T17:37:01.000Z,25.5
2018-03-18T17:39:01.000Z,25.5
2018-03-18T17:41:01.000Z,25.4
2018-03-18T17:42:01.000Z,25.4
2018-03-18T17:44:01.000Z,25.4
2018-03-18T17:45:01.000Z,25.4
2018-03-18T17:47:01.000Z,25.5
2018-03-18T17:49:01.000Z,25.5
2018-03-18T17:50:01.000Z,25.5
2018-03-18T17:51:01.000Z,25.5
2018-03-18T17:52:01.000Z,25.6
2018-03-18T17:54:01.000Z,25.6
2018-03-18T17:55:01.000Z,25.6
2018-03-18T17:57:01.000Z,25.6
2018-03-18T17:59:01.000Z,25.5
2018-03-18T18:00:01.000Z,25.4
2018-03-18T18:02:01.000Z,25.4
2018-03-18T18:03:01.000Z,25.4
2018-03-18T18:05:01.000Z,25.4
2018-03-18T18:06:01.000Z,25.4
2018-03-18T18:08:01.000Z,25.4
2018-03-18T18:10:01.000Z,25.4
2018-03-18T18:11:01.000Z,25.4
2018-03-18T18:12:46.000Z,25.4
2018-03-18T18:14:01.000Z,25.4
2018-03-18T18:15:01.000Z,25.4
2018-03-18T18:17:01.000Z,25.3
2018-03-18T18:19:01.000Z,25.3
2018-03-18T18:20:01.000Z,25.3
2018-03-18T18:21:01.000Z,25.3
2018-03-18T18:23:01.000Z,25.3
2018-03-18T18:24:01.000Z,25.3
2018-03-18T18:26:01.000Z,25.3
2018-03-18T18:27:01.000Z,25.3
2018-03-18T18:28:01.000Z,25.4
2018-03-18T18:29:01.000Z,25.4
2018-03-18T18:31:01.000Z,25.5
2018-03-18T18:32:01.000Z,25.5
2018-03-18T18:33:01.000Z,25.5
2018-03-18T18:35:01.000Z,25.4
2018-03-18T18:37:01.000Z,25.4
2018-03-18T18:38:01.000Z,25.4
2018-03-18T18:39:01.000Z,25.4
2018-03-18T18:41:01.000Z,25.4
2018-03-18T18:43:01.000Z,25.3
2018-03-18T18:45:01.000Z,25.3
2018-03-18T18:47:01.000Z,25.2
2018-03-18T18:49:01.000Z,25.2
2018-03-18T18:50:01.000Z,25.2
2018-03-18T18:52:01.000Z,25.2
2018-03-18T18:54:01.000Z,25.2
2018-03-18T18:56:01.000Z,25.1
2018-03-18T18:58:01.000Z,25.1
2018-03-18T18:59:01.000Z,25.1
2018-03-18T19:00:01.000Z,25.2
2018-03-18T19:01:01.000Z,25.2
2018-03-18T19:02:01.000Z,25.3
2018-03-18T19:03:01.000Z,25.3
2018-03-18T19:05:01.000Z,25.4
2018-03-18T19:07:01.000Z,25.3
2018-03-18T19:09:01.000Z,25.3
2018-03-18T19:10:01.000Z,25.3
2018-03-18T19:11:01.000Z,25.3
2018-03-18T19:12:01.000Z,25.3
2018-03-18T19:14:01.000Z,25.3
2018-03-18T19:16:01.000Z,25.3
2018-03-18T19:17:01.000Z,25.3
2018-03-18T19:18:01.000Z,25.3
2018-03-18T19:20:01.000Z,25.3
2018-03-18T19:22:01.000Z,25.2
2018-03-18T19:24:01.000Z,25.1
2018-03-18T19:25:01.000Z,25.1
2018-03-18T19:27:01.000Z,25.2
2018-03-18T19:28:01.000Z,25.2
2018-03-18T19:30:01.000Z,25.2
2018-03-18T19:31:01.000Z,25.2
2018-03-18T19:32:01.000Z,25.2
2018-03-18T19:33:01.000Z,25.3
2018-03-18T19:34:01.000Z,25.3
2018-03-18T19:35:01.000Z,25.4
2018-03-18T19:37:01.000Z,25.4
2018-03-18T19:38:01.000Z,25.4
2018-03-18T19:39:01.000Z,25.4
2018-03-18T19:40:01.000Z,25.4
2018-03-18T19:42:01.000Z,25.3
2018-03-18T19:43:01.000Z,25.3
2018-03-18T19:44:01.000Z,25.3
2018-03-18T19:46:01.000Z,25.2
2018-03-18T19:47:01.000Z,25.2
2018-03-18T19:49:01.000Z,25.2
2018-03-18T19:51:01.000Z,25.1
2018-03-18T19:53:01.000Z,25.1
2018-03-18T19:54:01.000Z,25.1
2018-03-18T19:55:01.000Z,25.1
2018-03-18T19:57:01.000Z,25.1
2018-03-18T19:59:01.000Z,25
2018-03-18T20:00:02.000Z,25
2018-03-18T20:02:02.000Z,25
2018-03-18T20:03:02.000Z,25
2018-03-18T20:05:02.000Z,25
2018-03-18T20:06:02.000Z,25
2018-03-18T20:08:02.000Z,25
2018-03-18T20:10:02.000Z,25
2018-03-18T20:12:02.000Z,24.9
2018-03-18T20:14:02.000Z,24.8
2018-03-18T20:15:02.000Z,24.8
2018-03-18T20:16:02.000Z,24.9
2018-03-18T20:17:02.000Z,25
2018-03-18T20:19:02.000Z,25.1
2018-03-18T20:20:02.000Z,25.1
2018-03-18T20:21:02.000Z,25.2
2018-03-18T20:23:02.000Z,25.2
2018-03-18T20:24:02.000Z,25.2
2018-03-18T20:26:02.000Z,25.2